Terminal Aerodrome Forecast
Issued by NWS Quad Cities IA IL

Home | Current Version | Previous Version | Text Only | Print | Product List | Glossary On
Versions: 1 2 3 4 5 6 7 8 9 10 11 12 13
000
FTUS43 KDVN 202300
TAFDBQ
TAF
KDBQ 202320Z 2100/2124 21010KT P6SM SCT090 BKN250
     FM210900 22007KT P6SM VCSH SCT040 OVC070
     FM211500 26008KT 5SM BR VCSH OVC035
      TEMPO 2115/2119 4SM -SHRA BR BKN025
     FM211900 32011KT P6SM BKN035=

USA.gov is the U.S. government's official web portal to all federal, state and local government web resources and services.